sensor_id;sensor_type;location;lat;lon;timestamp;P1;durP1;ratioP1;P2;durP2;ratioP2
4210;SDS011;2119;48.828;12.396;2022-12-13T00:01:53;28.47;;;15.20;;
4210;SDS011;2119;48.828;12.396;2022-12-13T00:06:53;36.50;;;17.53;;
4210;SDS011;2119;48.828;12.396;2022-12-13T00:11:54;38.13;;;16.27;;
4210;SDS011;2119;48.828;12.396;2022-12-13T00:16:54;37.20;;;16.52;;
4210;SDS011;2119;48.828;12.396;2022-12-13T00:21:54;41.20;;;16.35;;
4210;SDS011;2119;48.828;12.396;2022-12-13T00:26:54;35.03;;;16.42;;
4210;SDS011;2119;48.828;12.396;2022-12-13T00:31:55;31.10;;;16.23;;
4210;SDS011;2119;48.828;12.396;2022-12-13T00:36:55;35.08;;;17.05;;
4210;SDS011;2119;48.828;12.396;2022-12-13T00:41:57;32.27;;;16.20;;
4210;SDS011;2119;48.828;12.396;2022-12-13T00:46:58;30.55;;;15.05;;
4210;SDS011;2119;48.828;12.396;2022-12-13T00:51:58;36.92;;;15.30;;
4210;SDS011;2119;48.828;12.396;2022-12-13T00:56:59;30.23;;;14.50;;
4210;SDS011;2119;48.828;12.396;2022-12-13T01:01:59;32.60;;;15.38;;
4210;SDS011;2119;48.828;12.396;2022-12-13T01:06:59;33.05;;;15.80;;
4210;SDS011;2119;48.828;12.396;2022-12-13T01:12:03;34.28;;;15.57;;
4210;SDS011;2119;48.828;12.396;2022-12-13T01:17:04;38.20;;;15.93;;
4210;SDS011;2119;48.828;12.396;2022-12-13T01:22:05;32.77;;;15.30;;
4210;SDS011;2119;48.828;12.396;2022-12-13T01:27:06;39.23;;;17.70;;
4210;SDS011;2119;48.828;12.396;2022-12-13T01:32:06;28.83;;;15.60;;
4210;SDS011;2119;48.828;12.396;2022-12-13T01:37:06;37.58;;;16.42;;
4210;SDS011;2119;48.828;12.396;2022-12-13T01:42:09;31.73;;;15.88;;
4210;SDS011;2119;48.828;12.396;2022-12-13T01:47:12;59.60;;;25.47;;
4210;SDS011;2119;48.828;12.396;2022-12-13T01:52:15;64.27;;;25.30;;
4210;SDS011;2119;48.828;12.396;2022-12-13T01:57:16;44.90;;;17.23;;
4210;SDS011;2119;48.828;12.396;2022-12-13T02:02:17;36.17;;;17.50;;
4210;SDS011;2119;48.828;12.396;2022-12-13T02:07:17;37.20;;;16.10;;
4210;SDS011;2119;48.828;12.396;2022-12-13T02:12:19;33.47;;;17.13;;
4210;SDS011;2119;48.828;12.396;2022-12-13T02:33:10;42.43;;;16.57;;
4210;SDS011;2119;48.828;12.396;2022-12-13T02:38:14;45.80;;;16.70;;
4210;SDS011;2119;48.828;12.396;2022-12-13T02:43:19;44.27;;;17.23;;
4210;SDS011;2119;48.828;12.396;2022-12-13T02:48:22;47.47;;;18.03;;
4210;SDS011;2119;48.828;12.396;2022-12-13T02:53:24;47.63;;;20.37;;
4210;SDS011;2119;48.828;12.396;2022-12-13T02:58:27;49.80;;;18.77;;
4210;SDS011;2119;48.828;12.396;2022-12-13T03:03:34;42.17;;;17.20;;
4210;SDS011;2119;48.828;12.396;2022-12-13T03:13:48;75.63;;;27.53;;
4210;SDS011;2119;48.828;12.396;2022-12-13T03:18:59;64.20;;;23.70;;
4210;SDS011;2119;48.828;12.396;2022-12-13T03:24:00;62.07;;;22.50;;
4210;SDS011;2119;48.828;12.396;2022-12-13T03:29:07;60.33;;;21.40;;
4210;SDS011;2119;48.828;12.396;2022-12-13T03:34:08;63.20;;;20.87;;
4210;SDS011;2119;48.828;12.396;2022-12-13T03:39:08;53.17;;;21.87;;
4210;SDS011;2119;48.828;12.396;2022-12-13T03:44:10;48.95;;;20.77;;
4210;SDS011;2119;48.828;12.396;2022-12-13T03:49:10;52.80;;;20.40;;
4210;SDS011;2119;48.828;12.396;2022-12-13T03:54:10;53.17;;;20.77;;
4210;SDS011;2119;48.828;12.396;2022-12-13T03:59:10;52.83;;;20.63;;
4210;SDS011;2119;48.828;12.396;2022-12-13T04:04:12;50.83;;;21.65;;
4210;SDS011;2119;48.828;12.396;2022-12-13T04:09:12;64.63;;;22.90;;
4210;SDS011;2119;48.828;12.396;2022-12-13T04:14:13;48.03;;;20.65;;
4210;SDS011;2119;48.828;12.396;2022-12-13T04:19:15;55.60;;;21.60;;
4210;SDS011;2119;48.828;12.396;2022-12-13T04:24:18;64.07;;;22.33;;
4210;SDS011;2119;48.828;12.396;2022-12-13T04:29:18;50.30;;;22.30;;
4210;SDS011;2119;48.828;12.396;2022-12-13T04:34:18;51.70;;;19.92;;
4210;SDS011;2119;48.828;12.396;2022-12-13T04:39:19;38.78;;;17.92;;
4210;SDS011;2119;48.828;12.396;2022-12-13T04:44:19;42.90;;;18.15;;
4210;SDS011;2119;48.828;12.396;2022-12-13T04:49:19;48.58;;;19.83;;
4210;SDS011;2119;48.828;12.396;2022-12-13T04:54:20;34.72;;;17.33;;
4210;SDS011;2119;48.828;12.396;2022-12-13T04:59:21;36.30;;;18.13;;
4210;SDS011;2119;48.828;12.396;2022-12-13T05:04:21;39.78;;;16.55;;
4210;SDS011;2119;48.828;12.396;2022-12-13T05:09:23;39.42;;;17.63;;
4210;SDS011;2119;48.828;12.396;2022-12-13T05:14:23;39.83;;;16.80;;
4210;SDS011;2119;48.828;12.396;2022-12-13T05:19:23;38.67;;;17.20;;
4210;SDS011;2119;48.828;12.396;2022-12-13T05:24:23;41.85;;;18.55;;
4210;SDS011;2119;48.828;12.396;2022-12-13T05:29:26;40.10;;;16.80;;
4210;SDS011;2119;48.828;12.396;2022-12-13T05:34:26;40.53;;;17.73;;
4210;SDS011;2119;48.828;12.396;2022-12-13T05:39:27;32.35;;;16.17;;
4210;SDS011;2119;48.828;12.396;2022-12-13T05:44:29;35.25;;;16.83;;
4210;SDS011;2119;48.828;12.396;2022-12-13T05:49:29;38.10;;;16.03;;
4210;SDS011;2119;48.828;12.396;2022-12-13T05:54:30;40.40;;;16.73;;
4210;SDS011;2119;48.828;12.396;2022-12-13T05:59:31;35.83;;;16.70;;
4210;SDS011;2119;48.828;12.396;2022-12-13T06:04:32;33.53;;;15.73;;
4210;SDS011;2119;48.828;12.396;2022-12-13T06:09:32;33.70;;;16.95;;
4210;SDS011;2119;48.828;12.396;2022-12-13T06:14:32;38.63;;;17.90;;
4210;SDS011;2119;48.828;12.396;2022-12-13T06:19:32;68.97;;;18.42;;
4210;SDS011;2119;48.828;12.396;2022-12-13T06:24:33;46.17;;;19.80;;
4210;SDS011;2119;48.828;12.396;2022-12-13T06:29:33;36.95;;;15.50;;
4210;SDS011;2119;48.828;12.396;2022-12-13T06:34:34;30.35;;;15.25;;
4210;SDS011;2119;48.828;12.396;2022-12-13T06:39:35;37.47;;;14.80;;
4210;SDS011;2119;48.828;12.396;2022-12-13T06:44:36;36.33;;;16.13;;
4210;SDS011;2119;48.828;12.396;2022-12-13T06:49:37;30.37;;;14.50;;
4210;SDS011;2119;48.828;12.396;2022-12-13T06:59:41;41.27;;;16.27;;
4210;SDS011;2119;48.828;12.396;2022-12-13T07:04:45;40.30;;;18.00;;
4210;SDS011;2119;48.828;12.396;2022-12-13T07:09:45;34.90;;;17.80;;
4210;SDS011;2119;48.828;12.396;2022-12-13T07:14:52;26.23;;;14.15;;
4210;SDS011;2119;48.828;12.396;2022-12-13T07:19:53;30.30;;;16.83;;
4210;SDS011;2119;48.828;12.396;2022-12-13T07:24:54;28.25;;;14.43;;
4210;SDS011;2119;48.828;12.396;2022-12-13T07:29:54;28.52;;;13.95;;
4210;SDS011;2119;48.828;12.396;2022-12-13T07:34:55;30.38;;;13.77;;
4210;SDS011;2119;48.828;12.396;2022-12-13T07:39:55;30.33;;;14.50;;
4210;SDS011;2119;48.828;12.396;2022-12-13T07:44:57;24.08;;;12.25;;
4210;SDS011;2119;48.828;12.396;2022-12-13T07:55:00;28.20;;;13.00;;
4210;SDS011;2119;48.828;12.396;2022-12-13T08:00:01;27.77;;;14.43;;
4210;SDS011;2119;48.828;12.396;2022-12-13T08:05:02;30.00;;;14.27;;
4210;SDS011;2119;48.828;12.396;2022-12-13T08:10:03;28.80;;;14.40;;
4210;SDS011;2119;48.828;12.396;2022-12-13T08:15:03;32.33;;;14.97;;
4210;SDS011;2119;48.828;12.396;2022-12-13T08:20:04;38.10;;;21.00;;
4210;SDS011;2119;48.828;12.396;2022-12-13T08:25:05;40.30;;;20.90;;
4210;SDS011;2119;48.828;12.396;2022-12-13T08:30:05;40.37;;;18.97;;
4210;SDS011;2119;48.828;12.396;2022-12-13T08:35:08;38.20;;;20.83;;
4210;SDS011;2119;48.828;12.396;2022-12-13T08:40:09;41.20;;;19.70;;
4210;SDS011;2119;48.828;12.396;2022-12-13T08:45:10;38.87;;;18.03;;
4210;SDS011;2119;48.828;12.396;2022-12-13T08:50:13;40.40;;;18.80;;
4210;SDS011;2119;48.828;12.396;2022-12-13T08:55:15;36.60;;;17.13;;
4210;SDS011;2119;48.828;12.396;2022-12-13T09:05:21;38.37;;;15.97;;
4210;SDS011;2119;48.828;12.396;2022-12-13T09:10:22;34.87;;;16.57;;
4210;SDS011;2119;48.828;12.396;2022-12-13T09:15:23;40.90;;;16.50;;
4210;SDS011;2119;48.828;12.396;2022-12-13T09:20:23;27.77;;;14.63;;
4210;SDS011;2119;48.828;12.396;2022-12-13T09:25:25;24.90;;;12.20;;
4210;SDS011;2119;48.828;12.396;2022-12-13T09:30:25;22.80;;;12.33;;
4210;SDS011;2119;48.828;12.396;2022-12-13T09:35:25;22.00;;;10.50;;
4210;SDS011;2119;48.828;12.396;2022-12-13T09:40:33;22.02;;;11.77;;
4210;SDS011;2119;48.828;12.396;2022-12-13T09:45:34;23.90;;;12.40;;
4210;SDS011;2119;48.828;12.396;2022-12-13T09:50:34;22.83;;;12.77;;
4210;SDS011;2119;48.828;12.396;2022-12-13T09:55:37;30.40;;;13.20;;
4210;SDS011;2119;48.828;12.396;2022-12-13T10:00:38;26.80;;;12.60;;
4210;SDS011;2119;48.828;12.396;2022-12-13T10:05:39;24.37;;;11.53;;
4210;SDS011;2119;48.828;12.396;2022-12-13T10:10:43;29.53;;;11.90;;
4210;SDS011;2119;48.828;12.396;2022-12-13T10:15:49;20.43;;;11.17;;
4210;SDS011;2119;48.828;12.396;2022-12-13T10:20:50;23.87;;;11.43;;
4210;SDS011;2119;48.828;12.396;2022-12-13T10:25:52;22.53;;;11.77;;
4210;SDS011;2119;48.828;12.396;2022-12-13T10:30:57;24.43;;;11.90;;
4210;SDS011;2119;48.828;12.396;2022-12-13T10:36:42;28.73;;;13.23;;
4210;SDS011;2119;48.828;12.396;2022-12-13T10:41:24;24.13;;;11.77;;
4210;SDS011;2119;48.828;12.396;2022-12-13T10:46:25;24.77;;;12.10;;
4210;SDS011;2119;48.828;12.396;2022-12-13T10:51:36;18.97;;;10.27;;
4210;SDS011;2119;48.828;12.396;2022-12-13T10:56:48;17.37;;;10.50;;
4210;SDS011;2119;48.828;12.396;2022-12-13T11:01:48;22.97;;;11.00;;
4210;SDS011;2119;48.828;12.396;2022-12-13T11:06:49;30.08;;;11.55;;
4210;SDS011;2119;48.828;12.396;2022-12-13T11:11:50;26.37;;;10.53;;
4210;SDS011;2119;48.828;12.396;2022-12-13T11:16:53;21.63;;;10.57;;
4210;SDS011;2119;48.828;12.396;2022-12-13T11:21:55;18.97;;;9.60;;
4210;SDS011;2119;48.828;12.396;2022-12-13T11:26:57;15.97;;;9.03;;
4210;SDS011;2119;48.828;12.396;2022-12-13T11:47:26;23.10;;;11.30;;
4210;SDS011;2119;48.828;12.396;2022-12-13T11:52:29;22.50;;;11.47;;
4210;SDS011;2119;48.828;12.396;2022-12-13T12:02:41;17.90;;;10.50;;
4210;SDS011;2119;48.828;12.396;2022-12-13T12:07:46;17.23;;;10.00;;
4210;SDS011;2119;48.828;12.396;2022-12-13T12:12:51;21.13;;;11.20;;
4210;SDS011;2119;48.828;12.396;2022-12-13T12:17:54;21.50;;;11.13;;
4210;SDS011;2119;48.828;12.396;2022-12-13T12:23:04;18.20;;;9.63;;
4210;SDS011;2119;48.828;12.396;2022-12-13T12:38:33;15.00;;;9.37;;
4210;SDS011;2119;48.828;12.396;2022-12-13T12:43:40;15.17;;;9.03;;
4210;SDS011;2119;48.828;12.396;2022-12-13T12:48:48;12.70;;;8.40;;
4210;SDS011;2119;48.828;12.396;2022-12-13T12:59:30;15.03;;;7.50;;
4210;SDS011;2119;48.828;12.396;2022-12-13T13:04:38;20.80;;;8.00;;
4210;SDS011;2119;48.828;12.396;2022-12-13T13:09:42;15.60;;;8.43;;
4210;SDS011;2119;48.828;12.396;2022-12-13T13:14:45;15.40;;;8.10;;
4210;SDS011;2119;48.828;12.396;2022-12-13T13:20:10;16.77;;;7.90;;
4210;SDS011;2119;48.828;12.396;2022-12-13T13:30:32;14.90;;;8.40;;
4210;SDS011;2119;48.828;12.396;2022-12-13T13:40:37;14.47;;;7.50;;
4210;SDS011;2119;48.828;12.396;2022-12-13T13:50:58;13.03;;;8.13;;
4210;SDS011;2119;48.828;12.396;2022-12-13T14:12:02;13.80;;;7.67;;
4210;SDS011;2119;48.828;12.396;2022-12-13T14:32:47;15.20;;;8.90;;
4210;SDS011;2119;48.828;12.396;2022-12-13T14:37:55;15.60;;;8.73;;
4210;SDS011;2119;48.828;12.396;2022-12-13T14:42:56;16.00;;;8.17;;
4210;SDS011;2119;48.828;12.396;2022-12-13T14:47:58;13.70;;;8.17;;
4210;SDS011;2119;48.828;12.396;2022-12-13T14:52:59;17.30;;;9.70;;
4210;SDS011;2119;48.828;12.396;2022-12-13T14:58:03;20.80;;;14.07;;
4210;SDS011;2119;48.828;12.396;2022-12-13T15:03:20;27.97;;;12.23;;
4210;SDS011;2119;48.828;12.396;2022-12-13T15:08:23;16.30;;;10.30;;
4210;SDS011;2119;48.828;12.396;2022-12-13T15:13:43;17.57;;;10.40;;
4210;SDS011;2119;48.828;12.396;2022-12-13T15:18:45;20.27;;;10.97;;
4210;SDS011;2119;48.828;12.396;2022-12-13T15:23:46;26.77;;;11.70;;
4210;SDS011;2119;48.828;12.396;2022-12-13T15:28:48;22.47;;;11.87;;
4210;SDS011;2119;48.828;12.396;2022-12-13T15:33:50;22.07;;;11.50;;
4210;SDS011;2119;48.828;12.396;2022-12-13T15:44:01;34.27;;;16.37;;
4210;SDS011;2119;48.828;12.396;2022-12-13T15:49:03;21.03;;;12.03;;
4210;SDS011;2119;48.828;12.396;2022-12-13T15:54:05;16.90;;;10.27;;
4210;SDS011;2119;48.828;12.396;2022-12-13T15:59:28;22.13;;;11.70;;
4210;SDS011;2119;48.828;12.396;2022-12-13T16:04:29;25.30;;;12.80;;
4210;SDS011;2119;48.828;12.396;2022-12-13T16:09:32;23.17;;;10.60;;
4210;SDS011;2119;48.828;12.396;2022-12-13T16:19:34;22.20;;;11.77;;
4210;SDS011;2119;48.828;12.396;2022-12-13T16:24:35;21.80;;;12.23;;
4210;SDS011;2119;48.828;12.396;2022-12-13T16:29:37;14.97;;;8.77;;
4210;SDS011;2119;48.828;12.396;2022-12-13T16:34:38;17.97;;;9.60;;
4210;SDS011;2119;48.828;12.396;2022-12-13T16:39:38;20.80;;;12.27;;
4210;SDS011;2119;48.828;12.396;2022-12-13T16:44:38;16.80;;;10.68;;
4210;SDS011;2119;48.828;12.396;2022-12-13T16:49:41;22.80;;;12.40;;
4210;SDS011;2119;48.828;12.396;2022-12-13T16:54:43;28.80;;;16.43;;
4210;SDS011;2119;48.828;12.396;2022-12-13T16:59:44;32.90;;;16.03;;
4210;SDS011;2119;48.828;12.396;2022-12-13T17:04:45;44.90;;;20.80;;
4210;SDS011;2119;48.828;12.396;2022-12-13T17:09:46;47.42;;;23.90;;
4210;SDS011;2119;48.828;12.396;2022-12-13T17:14:49;33.40;;;19.70;;
4210;SDS011;2119;48.828;12.396;2022-12-13T17:19:49;31.97;;;18.30;;
4210;SDS011;2119;48.828;12.396;2022-12-13T17:24:50;30.17;;;16.63;;
4210;SDS011;2119;48.828;12.396;2022-12-13T17:29:50;26.95;;;15.10;;
4210;SDS011;2119;48.828;12.396;2022-12-13T17:34:51;28.00;;;14.27;;
4210;SDS011;2119;48.828;12.396;2022-12-13T17:39:53;32.23;;;14.03;;
4210;SDS011;2119;48.828;12.396;2022-12-13T17:44:53;30.87;;;16.77;;
4210;SDS011;2119;48.828;12.396;2022-12-13T17:49:54;27.47;;;14.00;;
4210;SDS011;2119;48.828;12.396;2022-12-13T17:54:54;31.70;;;15.20;;
4210;SDS011;2119;48.828;12.396;2022-12-13T17:59:55;41.80;;;20.50;;
4210;SDS011;2119;48.828;12.396;2022-12-13T18:04:55;55.90;;;26.05;;
4210;SDS011;2119;48.828;12.396;2022-12-13T18:09:56;45.63;;;23.55;;
4210;SDS011;2119;48.828;12.396;2022-12-13T18:14:56;51.00;;;26.27;;
4210;SDS011;2119;48.828;12.396;2022-12-13T18:19:57;47.33;;;25.27;;
4210;SDS011;2119;48.828;12.396;2022-12-13T18:24:58;48.70;;;24.88;;
4210;SDS011;2119;48.828;12.396;2022-12-13T18:29:58;37.63;;;19.87;;
4210;SDS011;2119;48.828;12.396;2022-12-13T18:35:00;39.90;;;21.63;;
4210;SDS011;2119;48.828;12.396;2022-12-13T18:40:01;30.23;;;14.40;;
4210;SDS011;2119;48.828;12.396;2022-12-13T18:45:09;38.77;;;20.67;;
4210;SDS011;2119;48.828;12.396;2022-12-13T18:50:11;42.60;;;21.33;;
4210;SDS011;2119;48.828;12.396;2022-12-13T18:55:12;34.67;;;18.70;;
4210;SDS011;2119;48.828;12.396;2022-12-13T19:00:12;39.47;;;19.43;;
4210;SDS011;2119;48.828;12.396;2022-12-13T19:05:16;42.97;;;21.90;;
4210;SDS011;2119;48.828;12.396;2022-12-13T19:15:23;33.27;;;19.50;;
4210;SDS011;2119;48.828;12.396;2022-12-13T19:20:27;30.13;;;15.57;;
4210;SDS011;2119;48.828;12.396;2022-12-13T19:25:34;22.57;;;13.23;;
4210;SDS011;2119;48.828;12.396;2022-12-13T19:30:35;22.60;;;12.13;;
4210;SDS011;2119;48.828;12.396;2022-12-13T19:35:36;26.10;;;14.30;;
4210;SDS011;2119;48.828;12.396;2022-12-13T19:40:40;29.70;;;16.37;;
4210;SDS011;2119;48.828;12.396;2022-12-13T19:45:47;18.83;;;12.40;;
4210;SDS011;2119;48.828;12.396;2022-12-13T19:50:49;33.77;;;18.10;;
4210;SDS011;2119;48.828;12.396;2022-12-13T19:55:58;33.67;;;18.13;;
4210;SDS011;2119;48.828;12.396;2022-12-13T20:00:59;35.70;;;19.57;;
4210;SDS011;2119;48.828;12.396;2022-12-13T20:11:09;28.10;;;15.53;;
4210;SDS011;2119;48.828;12.396;2022-12-13T20:16:15;29.80;;;18.57;;
4210;SDS011;2119;48.828;12.396;2022-12-13T20:21:16;31.07;;;17.53;;
4210;SDS011;2119;48.828;12.396;2022-12-13T20:26:18;28.27;;;16.55;;
4210;SDS011;2119;48.828;12.396;2022-12-13T20:31:29;35.50;;;17.70;;
4210;SDS011;2119;48.828;12.396;2022-12-13T20:36:30;34.37;;;17.00;;
4210;SDS011;2119;48.828;12.396;2022-12-13T20:41:33;36.63;;;19.50;;
4210;SDS011;2119;48.828;12.396;2022-12-13T20:46:35;42.07;;;20.60;;
4210;SDS011;2119;48.828;12.396;2022-12-13T20:51:38;33.80;;;19.77;;
4210;SDS011;2119;48.828;12.396;2022-12-13T20:56:42;44.13;;;20.43;;
4210;SDS011;2119;48.828;12.396;2022-12-13T21:01:43;51.70;;;23.93;;
4210;SDS011;2119;48.828;12.396;2022-12-13T21:06:43;42.10;;;19.40;;
4210;SDS011;2119;48.828;12.396;2022-12-13T21:11:45;36.63;;;19.80;;
4210;SDS011;2119;48.828;12.396;2022-12-13T21:21:49;33.50;;;17.23;;
4210;SDS011;2119;48.828;12.396;2022-12-13T21:26:50;35.13;;;17.50;;
4210;SDS011;2119;48.828;12.396;2022-12-13T21:31:50;31.97;;;18.40;;
4210;SDS011;2119;48.828;12.396;2022-12-13T21:41:59;36.63;;;18.10;;
4210;SDS011;2119;48.828;12.396;2022-12-13T21:47:08;28.47;;;16.17;;
4210;SDS011;2119;48.828;12.396;2022-12-13T21:52:17;31.03;;;17.40;;
4210;SDS011;2119;48.828;12.396;2022-12-13T21:57:20;31.73;;;16.63;;
4210;SDS011;2119;48.828;12.396;2022-12-13T22:02:53;30.77;;;16.10;;
4210;SDS011;2119;48.828;12.396;2022-12-13T22:07:56;30.20;;;16.83;;
4210;SDS011;2119;48.828;12.396;2022-12-13T22:12:56;40.07;;;18.13;;
4210;SDS011;2119;48.828;12.396;2022-12-13T22:17:57;30.92;;;16.35;;
4210;SDS011;2119;48.828;12.396;2022-12-13T22:22:59;33.63;;;18.03;;
4210;SDS011;2119;48.828;12.396;2022-12-13T22:27:59;33.20;;;17.00;;
4210;SDS011;2119;48.828;12.396;2022-12-13T22:33:03;31.75;;;16.63;;
4210;SDS011;2119;48.828;12.396;2022-12-13T22:38:04;33.47;;;17.80;;
4210;SDS011;2119;48.828;12.396;2022-12-13T22:43:05;42.43;;;20.10;;
4210;SDS011;2119;48.828;12.396;2022-12-13T22:48:13;38.47;;;19.00;;
4210;SDS011;2119;48.828;12.396;2022-12-13T22:53:14;36.13;;;18.60;;
4210;SDS011;2119;48.828;12.396;2022-12-13T22:58:18;35.70;;;16.80;;
4210;SDS011;2119;48.828;12.396;2022-12-13T23:03:18;34.23;;;17.00;;
4210;SDS011;2119;48.828;12.396;2022-12-13T23:08:19;37.22;;;18.17;;
4210;SDS011;2119;48.828;12.396;2022-12-13T23:13:19;37.55;;;18.15;;
4210;SDS011;2119;48.828;12.396;2022-12-13T23:18:19;35.30;;;17.17;;
4210;SDS011;2119;48.828;12.396;2022-12-13T23:23:21;33.65;;;16.92;;
4210;SDS011;2119;48.828;12.396;2022-12-13T23:28:24;32.63;;;16.47;;
4210;SDS011;2119;48.828;12.396;2022-12-13T23:33:25;24.10;;;15.17;;
4210;SDS011;2119;48.828;12.396;2022-12-13T23:38:27;41.33;;;17.00;;
4210;SDS011;2119;48.828;12.396;2022-12-13T23:48:39;33.73;;;17.83;;
4210;SDS011;2119;48.828;12.396;2022-12-13T23:53:43;30.83;;;15.80;;
4210;SDS011;2119;48.828;12.396;2022-12-13T23:58:44;33.47;;;15.80;;
